createdAt,value
2023-05-03T00:00:44.736Z,88.25
2023-05-03T00:01:44.763Z,88.15
2023-05-03T00:02:45.135Z,88.46
2023-05-03T00:03:44.701Z,87.73
2023-05-03T00:04:44.735Z,87.52
2023-05-03T00:05:44.704Z,87.42
2023-05-03T00:06:44.709Z,87.84
2023-05-03T00:07:44.665Z,88.15
2023-05-03T00:08:44.650Z,88.35
2023-05-03T00:09:44.654Z,87.84
2023-05-03T00:10:44.646Z,87.21
2023-05-03T00:11:44.686Z,87.66
2023-05-03T00:12:44.624Z,88.15
2023-05-03T00:13:44.596Z,88.81
2023-05-03T00:14:44.600Z,88.40
2023-05-03T00:15:44.576Z,90.47
2023-05-03T00:16:44.605Z,90.47
2023-05-03T00:17:44.618Z,90.58
2023-05-03T00:18:44.549Z,90.79
2023-05-03T00:19:44.551Z,90.06
2023-05-03T00:20:44.519Z,89.43
2023-05-03T00:21:44.507Z,88.60
2023-05-03T00:22:44.519Z,88.40
2023-05-03T00:23:44.488Z,88.92
2023-05-03T00:24:44.493Z,87.98
2023-05-03T00:25:44.478Z,87.46
2023-05-03T00:26:44.458Z,87.71
2023-05-03T00:27:44.455Z,88.54
2023-05-03T00:28:44.456Z,88.75
2023-05-03T00:29:44.455Z,90.31
2023-05-03T00:30:44.450Z,89.89
2023-05-03T00:31:44.446Z,88.96
2023-05-03T00:32:44.422Z,88.48
2023-05-03T00:33:44.388Z,88.89
2023-05-03T00:34:44.388Z,88.79
2023-05-03T00:35:44.372Z,88.27
2023-05-03T00:36:44.358Z,88.48
2023-05-03T00:37:44.347Z,87.54
2023-05-03T00:38:44.339Z,87.65
2023-05-03T00:39:44.333Z,87.50
2023-05-03T00:40:44.312Z,87.33
2023-05-03T00:41:44.300Z,88.48
2023-05-03T00:42:44.293Z,88.58
2023-05-03T00:43:44.296Z,88.48
2023-05-03T00:44:44.348Z,89.62
2023-05-03T00:45:44.279Z,88.89
2023-05-03T00:46:44.296Z,89.00
2023-05-03T00:47:44.363Z,89.00
2023-05-03T00:48:44.234Z,88.79
2023-05-03T00:49:44.257Z,87.96
2023-05-03T00:50:44.213Z,88.48
2023-05-03T00:51:44.199Z,87.96
2023-05-03T00:52:44.193Z,87.65
2023-05-03T00:53:44.176Z,87.75
2023-05-03T00:54:44.177Z,87.54
2023-05-03T00:55:44.152Z,88.17
2023-05-03T00:56:51.605Z,87.48
2023-05-03T00:57:45.140Z,87.37
2023-05-03T00:58:44.131Z,87.48
2023-05-03T00:59:44.121Z,87.16
2023-05-03T01:00:44.128Z,87.30
2023-05-03T01:01:44.139Z,87.16
2023-05-03T01:02:44.182Z,87.16
2023-05-03T01:03:44.182Z,86.89
2023-05-03T01:04:44.094Z,87.16
2023-05-03T01:05:44.050Z,87.83
2023-05-03T01:06:44.077Z,87.41
2023-05-03T01:07:44.031Z,87.99
2023-05-03T01:08:44.025Z,87.41
2023-05-03T01:09:44.021Z,87.48
2023-05-03T01:10:44.000Z,87.41
2023-05-03T01:11:43.992Z,87.93
2023-05-03T01:12:43.980Z,88.73
2023-05-03T01:13:43.996Z,88.56
2023-05-03T01:14:43.973Z,89.04
2023-05-03T01:15:43.977Z,88.10
2023-05-03T01:16:44.010Z,88.73
2023-05-03T01:17:43.930Z,88.52
2023-05-03T01:18:43.923Z,88.24
2023-05-03T01:19:43.915Z,89.08
2023-05-03T01:20:43.913Z,88.49
2023-05-03T01:21:43.881Z,88.76
2023-05-03T01:22:43.877Z,88.60
2023-05-03T01:23:43.876Z,88.29
2023-05-03T01:24:43.862Z,88.91
2023-05-03T01:25:43.842Z,89.01
2023-05-03T01:26:43.832Z,88.39
2023-05-03T01:27:43.870Z,88.87
2023-05-03T01:28:43.813Z,87.83
2023-05-03T01:29:43.811Z,87.66
2023-05-03T01:30:43.792Z,87.83
2023-05-03T01:31:43.802Z,88.04
2023-05-03T01:32:43.846Z,89.12
2023-05-03T01:33:43.757Z,87.97
2023-05-03T01:34:44.877Z,87.45
2023-05-03T01:35:44.859Z,87.55
2023-05-03T01:36:44.852Z,87.55
2023-05-03T01:37:44.845Z,90.58
2023-05-03T01:38:44.831Z,90.68
2023-05-03T01:39:44.856Z,91.00
2023-05-03T01:40:44.815Z,90.58
2023-05-03T01:41:44.804Z,90.26
2023-05-03T01:42:44.794Z,90.06
2023-05-03T01:43:44.783Z,88.91
2023-05-03T01:44:44.785Z,88.39
2023-05-03T01:45:44.772Z,88.08
2023-05-03T01:46:44.753Z,87.97
2023-05-03T01:47:44.770Z,89.01
2023-05-03T01:48:44.746Z,89.95
2023-05-03T01:49:44.756Z,90.79
2023-05-03T01:50:44.751Z,89.64
2023-05-03T01:51:44.704Z,88.53
2023-05-03T01:52:44.692Z,88.60
2023-05-03T01:53:44.681Z,88.29
2023-05-03T01:54:44.709Z,88.18
2023-05-03T01:55:44.702Z,88.29
2023-05-03T01:56:44.663Z,88.95
2023-05-03T01:57:44.650Z,88.53
2023-05-03T01:58:44.647Z,88.64
2023-05-03T01:59:44.661Z,88.49
2023-05-03T02:00:44.641Z,88.49
2023-05-03T02:01:44.676Z,88.39
2023-05-03T02:02:44.626Z,88.85
2023-05-03T02:03:45.619Z,88.43
2023-05-03T02:04:44.607Z,89.16
2023-05-03T02:05:44.584Z,90.83
2023-05-03T02:06:44.635Z,90.35
2023-05-03T02:07:44.553Z,90.10
2023-05-03T02:08:44.543Z,90.41
2023-05-03T02:09:44.538Z,90.10
2023-05-03T02:10:44.516Z,90.10
2023-05-03T02:11:44.514Z,89.26
2023-05-03T02:12:44.503Z,88.85
2023-05-03T02:13:44.492Z,87.49
2023-05-03T02:14:44.488Z,87.91
2023-05-03T02:15:44.470Z,87.18
2023-05-03T02:16:44.507Z,86.66
2023-05-03T02:17:44.475Z,87.39
2023-05-03T02:18:44.443Z,87.32
2023-05-03T02:19:44.456Z,87.43
2023-05-03T02:20:44.433Z,87.07
2023-05-03T02:21:44.408Z,87.84
2023-05-03T02:22:44.398Z,88.89
2023-05-03T02:23:44.402Z,88.99
2023-05-03T02:24:44.409Z,88.57
2023-05-03T02:25:44.382Z,87.60
2023-05-03T02:26:44.378Z,87.63
2023-05-03T02:27:44.354Z,87.84
2023-05-03T02:28:44.346Z,88.47
2023-05-03T02:29:44.348Z,88.06
2023-05-03T02:30:44.375Z,87.63
2023-05-03T02:31:44.318Z,87.63
2023-05-03T02:32:44.351Z,87.53
2023-05-03T02:33:44.295Z,87.74
2023-05-03T02:34:44.299Z,87.32
2023-05-03T02:35:44.287Z,87.32
2023-05-03T02:36:44.263Z,87.12
2023-05-03T02:37:44.259Z,86.69
2023-05-03T02:38:44.255Z,86.69
2023-05-03T02:39:44.253Z,86.28
2023-05-03T02:40:44.248Z,86.32
2023-05-03T02:41:44.229Z,86.63
2023-05-03T02:42:44.218Z,86.69
2023-05-03T02:43:44.195Z,86.11
2023-05-03T02:44:44.217Z,86.21
2023-05-03T02:45:44.189Z,86.49
2023-05-03T02:46:44.203Z,86.74
2023-05-03T02:47:44.204Z,86.59
2023-05-03T02:48:44.161Z,87.88
2023-05-03T02:49:44.168Z,88.20
2023-05-03T02:50:44.136Z,87.53
2023-05-03T02:51:44.128Z,87.63
2023-05-03T02:52:44.124Z,87.78
2023-05-03T02:53:44.116Z,88.26
2023-05-03T02:54:44.114Z,89.76
2023-05-03T02:55:44.093Z,90.39
2023-05-03T02:56:44.079Z,90.08
2023-05-03T02:57:44.068Z,90.39
2023-05-03T02:58:44.071Z,89.34
2023-05-03T02:59:44.060Z,89.34
2023-05-03T03:00:44.048Z,88.72
2023-05-03T03:01:44.106Z,88.62
2023-05-03T03:02:44.168Z,89.56
2023-05-03T03:03:44.101Z,90.39
2023-05-03T03:04:44.025Z,89.14
2023-05-03T03:05:43.990Z,89.14
2023-05-03T03:06:44.014Z,89.03
2023-05-03T03:07:44.987Z,87.78
2023-05-03T03:08:43.967Z,87.78
2023-05-03T03:09:43.955Z,87.78
2023-05-03T03:10:43.961Z,88.13
2023-05-03T03:11:43.933Z,87.68
2023-05-03T03:12:43.943Z,88.24
2023-05-03T03:13:43.922Z,88.72
2023-05-03T03:14:43.912Z,88.65
2023-05-03T03:15:43.935Z,88.65
2023-05-03T03:16:43.887Z,88.82
2023-05-03T03:17:43.953Z,89.14
2023-05-03T03:18:43.867Z,88.93
2023-05-03T03:19:43.865Z,88.30
2023-05-03T03:20:43.872Z,88.41
2023-05-03T03:21:43.839Z,90.01
2023-05-03T03:22:43.842Z,90.60
2023-05-03T03:23:43.821Z,89.87
2023-05-03T03:24:43.809Z,89.70
2023-05-03T03:25:43.795Z,89.18
2023-05-03T03:26:43.789Z,88.34
2023-05-03T03:27:43.787Z,88.55
2023-05-03T03:28:43.774Z,88.76
2023-05-03T03:29:43.761Z,89.18
2023-05-03T03:30:43.773Z,90.12
2023-05-03T03:31:43.791Z,90.22
2023-05-03T03:32:43.832Z,89.70
2023-05-03T03:33:43.717Z,88.87
2023-05-03T03:34:43.742Z,89.22
2023-05-03T03:35:43.704Z,88.97
2023-05-03T03:36:43.699Z,89.49
2023-05-03T03:37:43.690Z,90.22
2023-05-03T03:38:43.682Z,90.37
2023-05-03T03:39:43.663Z,89.91
2023-05-03T03:40:43.669Z,90.12
2023-05-03T03:41:43.644Z,90.01
2023-05-03T03:42:43.643Z,90.75
2023-05-03T03:43:43.622Z,90.33
2023-05-03T03:44:43.650Z,90.16
2023-05-03T03:45:43.607Z,90.37
2023-05-03T03:46:43.679Z,90.06
2023-05-03T03:47:43.612Z,88.80
2023-05-03T03:48:43.575Z,89.26
2023-05-03T03:49:43.591Z,89.40
2023-05-03T03:50:43.563Z,90.56
2023-05-03T03:51:43.556Z,90.24
2023-05-03T03:52:43.549Z,90.91
2023-05-03T03:53:43.551Z,91.28
2023-05-03T03:54:43.537Z,91.50
2023-05-03T03:55:43.514Z,91.71
2023-05-03T03:56:43.538Z,91.28
2023-05-03T03:57:43.496Z,90.87
2023-05-03T03:58:43.500Z,91.08
2023-05-03T03:59:43.496Z,90.72
2023-05-03T04:00:43.478Z,90.93
2023-05-03T04:01:43.494Z,90.31
2023-05-03T04:02:43.529Z,90.06
2023-05-03T04:03:43.553Z,89.05
2023-05-03T04:04:43.445Z,89.22
2023-05-03T04:05:43.418Z,88.53
2023-05-03T04:06:43.464Z,88.53
2023-05-03T04:07:43.424Z,88.53
2023-05-03T04:08:43.417Z,88.95
2023-05-03T04:09:43.411Z,88.80
2023-05-03T04:10:43.382Z,89.11
2023-05-03T04:11:43.369Z,88.64
2023-05-03T04:12:43.352Z,88.95
2023-05-03T04:13:43.362Z,88.49
2023-05-03T04:14:43.345Z,88.39
2023-05-03T04:15:43.344Z,89.01
2023-05-03T04:16:43.368Z,89.28
2023-05-03T04:17:43.360Z,88.17
2023-05-03T04:18:43.299Z,88.45
2023-05-03T04:19:43.281Z,89.28
2023-05-03T04:20:43.301Z,89.01
2023-05-03T04:21:43.271Z,88.76
2023-05-03T04:22:43.260Z,90.64
2023-05-03T04:23:43.241Z,90.95
2023-05-03T04:24:43.231Z,91.27
2023-05-03T04:25:43.241Z,90.91
2023-05-03T04:26:43.213Z,90.28
2023-05-03T04:27:43.216Z,89.87
2023-05-03T04:28:43.207Z,90.43
2023-05-03T04:29:43.197Z,90.81
2023-05-03T04:30:43.248Z,90.18
2023-05-03T04:31:43.169Z,89.45
2023-05-03T04:32:43.217Z,88.62
2023-05-03T04:33:43.147Z,88.57
2023-05-03T04:34:43.138Z,88.72
2023-05-03T04:35:43.142Z,88.72
2023-05-03T04:36:43.112Z,88.93
2023-05-03T04:37:43.108Z,89.24
2023-05-03T04:38:43.116Z,88.20
2023-05-03T04:39:43.092Z,87.53
2023-05-03T04:40:43.095Z,87.53
2023-05-03T04:41:43.086Z,87.53
2023-05-03T04:42:43.069Z,87.43
2023-05-03T04:43:43.070Z,87.63
2023-05-03T04:44:43.055Z,87.57
2023-05-03T04:45:43.031Z,87.32
2023-05-03T04:46:43.054Z,87.74
2023-05-03T04:47:43.077Z,87.49
2023-05-03T04:48:43.004Z,87.60
2023-05-03T04:49:42.983Z,88.01
2023-05-03T04:50:42.990Z,87.70
2023-05-03T04:51:42.983Z,87.81
2023-05-03T04:52:42.967Z,87.45
2023-05-03T04:53:42.956Z,87.49
2023-05-03T04:54:42.951Z,87.66
2023-05-03T04:55:42.961Z,86.93
2023-05-03T04:56:43.002Z,87.04
2023-05-03T04:57:42.930Z,87.14
2023-05-03T04:58:42.914Z,86.72
2023-05-03T04:59:42.891Z,86.16
2023-05-03T05:00:42.877Z,86.06
2023-05-03T05:01:42.981Z,85.85
2023-05-03T05:02:42.889Z,85.12
2023-05-03T05:03:42.965Z,85.02
2023-05-03T05:04:42.840Z,84.66
2023-05-03T05:05:42.832Z,84.91
2023-05-03T05:06:42.829Z,86.37
2023-05-03T05:07:42.887Z,86.54
2023-05-03T05:08:42.791Z,86.22
2023-05-03T05:09:42.786Z,86.33
2023-05-03T05:10:42.789Z,86.75
2023-05-03T05:11:42.762Z,86.60
2023-05-03T05:12:42.751Z,87.79
2023-05-03T05:13:42.750Z,88.68
2023-05-03T05:14:42.742Z,88.17
2023-05-03T05:15:42.729Z,88.79
2023-05-03T05:16:42.774Z,88.58
2023-05-03T05:17:42.784Z,88.89
2023-05-03T05:18:42.684Z,88.79
2023-05-03T05:19:42.690Z,88.48
2023-05-03T05:20:42.673Z,88.58
2023-05-03T05:21:42.674Z,87.71
2023-05-03T05:22:42.642Z,87.43
2023-05-03T05:23:42.728Z,87.71
2023-05-03T05:24:42.631Z,87.81
2023-05-03T05:25:42.633Z,88.02
2023-05-03T05:26:42.626Z,87.88
2023-05-03T05:27:42.607Z,87.56
2023-05-03T05:28:42.597Z,87.35
2023-05-03T05:29:42.598Z,87.63
2023-05-03T05:30:42.572Z,87.42
2023-05-03T05:31:42.602Z,87.01
2023-05-03T05:32:42.601Z,87.01
2023-05-03T05:33:42.532Z,87.66
2023-05-03T05:34:45.557Z,87.56
2023-05-03T05:35:43.528Z,87.35
2023-05-03T05:36:42.536Z,87.66
2023-05-03T05:37:42.491Z,88.04
2023-05-03T05:38:42.491Z,88.56
2023-05-03T05:39:42.556Z,87.79
2023-05-03T05:40:42.485Z,87.27
2023-05-03T05:41:42.545Z,87.48
2023-05-03T05:42:42.478Z,87.03
2023-05-03T05:43:42.455Z,87.03
2023-05-03T05:44:42.452Z,86.65
2023-05-03T05:45:42.476Z,87.03
2023-05-03T05:46:42.496Z,86.61
2023-05-03T05:47:42.453Z,86.99
2023-05-03T05:48:42.419Z,87.40
2023-05-03T05:49:42.403Z,86.88
2023-05-03T05:50:42.380Z,85.85
2023-05-03T05:51:42.409Z,85.91
2023-05-03T05:52:42.380Z,85.94
2023-05-03T05:53:42.356Z,85.73
2023-05-03T05:54:42.347Z,84.75
2023-05-03T05:55:42.352Z,84.51
2023-05-03T05:56:42.332Z,83.95
2023-05-03T05:57:42.344Z,83.12
2023-05-03T05:58:42.322Z,81.84
2023-05-03T05:59:42.318Z,82.84
2023-05-03T06:00:42.283Z,81.35
2023-05-03T06:01:42.294Z,80.90
2023-05-03T06:02:42.417Z,80.70
2023-05-03T06:03:42.249Z,80.60
2023-05-03T06:04:42.292Z,79.90
2023-05-03T06:05:42.551Z,78.94
2023-05-03T06:06:42.251Z,78.52
2023-05-03T06:07:42.195Z,78.38
2023-05-03T06:08:42.186Z,76.70
2023-05-03T06:09:42.208Z,76.90
2023-05-03T06:10:42.288Z,76.04
2023-05-03T06:11:42.173Z,75.84
2023-05-03T06:12:42.161Z,74.57
2023-05-03T06:13:42.157Z,76.94
2023-05-03T06:14:48.963Z,76.53
2023-05-03T06:15:44.207Z,76.73
2023-05-03T06:16:42.187Z,77.08
2023-05-03T06:17:42.245Z,77.25
2023-05-03T06:18:42.201Z,77.91
2023-05-03T06:19:44.412Z,77.53
2023-05-03T06:20:42.148Z,77.84
2023-05-03T06:21:42.112Z,78.01
2023-05-03T06:22:42.125Z,77.84
2023-05-03T06:23:42.083Z,78.28
2023-05-03T06:24:42.116Z,78.91
2023-05-03T06:25:42.078Z,80.93
2023-05-03T06:26:42.098Z,78.87
2023-05-03T06:27:42.075Z,78.97
2023-05-03T06:28:42.062Z,80.04
2023-05-03T06:29:42.029Z,79.59
2023-05-03T06:30:42.144Z,79.18
2023-05-03T06:31:42.101Z,78.45
2023-05-03T06:32:42.061Z,80.18
2023-05-03T06:33:42.022Z,78.42
2023-05-03T06:34:41.991Z,78.86
2023-05-03T06:35:41.955Z,79.34
2023-05-03T06:36:41.997Z,78.07
2023-05-03T06:37:41.919Z,78.41
2023-05-03T06:38:41.924Z,77.03
2023-05-03T06:39:41.943Z,75.76
2023-05-03T06:40:41.949Z,75.21
2023-05-03T06:41:41.914Z,72.34
2023-05-03T06:42:41.845Z,72.00
2023-05-03T06:43:41.949Z,71.31
2023-05-03T06:44:41.829Z,71.62
2023-05-03T06:45:41.828Z,73.23
2023-05-03T06:46:41.846Z,74.12
2023-05-03T06:47:41.838Z,72.75
2023-05-03T06:48:41.842Z,73.23
2023-05-03T06:49:41.768Z,72.41
2023-05-03T06:50:41.763Z,71.97
2023-05-03T06:51:41.773Z,70.70
2023-05-03T06:52:41.735Z,69.44
2023-05-03T06:53:41.731Z,68.97
2023-05-03T06:54:41.741Z,67.50
2023-05-03T06:55:41.720Z,65.97
2023-05-03T06:56:41.711Z,68.52
2023-05-03T06:57:41.749Z,68.63
2023-05-03T06:58:41.703Z,67.68
2023-05-03T06:59:42.620Z,67.37
2023-05-03T07:00:41.686Z,66.11
2023-05-03T07:01:41.757Z,64.65
2023-05-03T07:02:41.780Z,63.85
2023-05-03T07:03:42.097Z,63.18
2023-05-03T07:04:42.652Z,63.76
2023-05-03T07:05:41.670Z,62.48
2023-05-03T07:06:55.394Z,61.22
2023-05-03T07:07:43.628Z,59.95
2023-05-03T07:08:41.626Z,57.43
2023-05-03T07:09:43.501Z,58.83
2023-05-03T07:10:42.591Z,56.70
2023-05-03T07:11:41.604Z,53.90
2023-05-03T07:12:41.618Z,53.11
2023-05-03T07:13:41.573Z,55.10
2023-05-03T07:14:41.590Z,54.39
2023-05-03T07:15:41.632Z,55.94
2023-05-03T07:16:41.571Z,57.70
2023-05-03T07:17:41.586Z,57.47
2023-05-03T07:18:42.563Z,56.73
2023-05-03T07:19:41.530Z,56.17
2023-05-03T07:20:41.517Z,55.53
2023-05-03T07:21:41.495Z,55.43
2023-05-03T07:22:41.509Z,55.30
2023-05-03T07:23:41.489Z,55.10
2023-05-03T07:24:41.484Z,53.78
2023-05-03T07:25:41.450Z,55.58
2023-05-03T07:26:43.642Z,55.53
2023-05-03T07:27:41.463Z,51.69
2023-05-03T07:28:41.454Z,54.21
2023-05-03T07:29:41.530Z,54.03
2023-05-03T07:30:41.390Z,53.11
2023-05-03T07:31:41.715Z,55.48
2023-05-03T07:32:41.467Z,53.04
2023-05-03T07:33:41.489Z,53.78
2023-05-03T07:34:41.344Z,54.59
2023-05-03T07:35:41.346Z,53.57
2023-05-03T07:36:41.421Z,53.44
2023-05-03T07:37:41.340Z,53.47
2023-05-03T07:38:41.356Z,53.50
2023-05-03T07:39:41.331Z,54.00
2023-05-03T07:40:41.305Z,55.02
2023-05-03T07:41:41.326Z,53.92
2023-05-03T07:42:41.274Z,55.84
2023-05-03T07:43:41.525Z,54.94
2023-05-03T07:44:41.291Z,57.19
2023-05-03T07:45:41.322Z,55.56
2023-05-03T07:46:41.269Z,54.05
2023-05-03T07:47:41.287Z,54.21
2023-05-03T07:48:42.708Z,54.49
2023-05-03T07:49:41.242Z,55.58
2023-05-03T07:50:41.235Z,55.35
2023-05-03T07:51:41.215Z,55.22
2023-05-03T07:52:41.198Z,51.89
2023-05-03T07:53:41.178Z,53.34
2023-05-03T07:54:41.178Z,55.00
2023-05-03T07:55:41.185Z,55.28
2023-05-03T07:56:41.142Z,55.58
2023-05-03T07:57:41.170Z,56.78
2023-05-03T07:58:42.460Z,56.45
2023-05-03T07:59:42.125Z,56.99
2023-05-03T08:00:41.130Z,55.56
2023-05-03T08:01:41.119Z,55.35
2023-05-03T08:02:41.281Z,55.38
2023-05-03T08:03:41.327Z,55.48
2023-05-03T08:04:41.334Z,55.99
2023-05-03T08:05:41.141Z,58.14
2023-05-03T08:06:41.158Z,54.26
2023-05-03T08:07:41.056Z,54.67
2023-05-03T08:08:41.014Z,55.56
2023-05-03T08:09:41.030Z,54.54
2023-05-03T08:10:41.046Z,52.70
2023-05-03T08:11:43.767Z,55.53
2023-05-03T08:12:41.026Z,53.27
2023-05-03T08:13:40.990Z,54.36
2023-05-03T08:14:40.961Z,51.79
2023-05-03T08:15:41.005Z,53.70
2023-05-03T08:16:41.014Z,53.78
2023-05-03T08:17:40.965Z,53.22
2023-05-03T08:18:40.944Z,48.97
2023-05-03T08:19:41.125Z,50.58
2023-05-03T08:20:40.921Z,51.70
2023-05-03T08:21:40.911Z,50.68
2023-05-03T08:22:40.872Z,50.20
2023-05-03T08:23:40.887Z,52.91
2023-05-03T08:24:40.867Z,49.46
2023-05-03T08:25:40.861Z,49.69
2023-05-03T08:26:41.916Z,50.60
2023-05-03T08:27:40.859Z,48.19
2023-05-03T08:28:40.820Z,49.73
2023-05-03T08:29:40.817Z,51.34
2023-05-03T08:30:40.831Z,50.42
2023-05-03T08:31:40.835Z,51.82
2023-05-03T08:32:41.741Z,50.40
2023-05-03T08:33:40.804Z,50.20
2023-05-03T08:34:40.797Z,50.09
2023-05-03T08:35:40.808Z,52.03
2023-05-03T08:36:40.770Z,50.88
2023-05-03T08:37:40.837Z,50.17
2023-05-03T08:38:40.781Z,50.27
2023-05-03T08:39:40.708Z,52.20
2023-05-03T08:40:40.717Z,52.15
2023-05-03T08:41:40.706Z,52.40
2023-05-03T08:42:40.739Z,54.11
2023-05-03T08:43:40.714Z,54.31
2023-05-03T08:44:40.670Z,55.97
2023-05-03T08:45:40.711Z,56.91
2023-05-03T08:46:40.695Z,57.42
2023-05-03T08:47:40.680Z,57.55
2023-05-03T08:48:40.616Z,58.64
2023-05-03T08:49:40.661Z,56.45
2023-05-03T08:50:40.616Z,57.65
2023-05-03T08:51:40.629Z,55.48
2023-05-03T08:52:40.730Z,54.28
2023-05-03T08:53:40.557Z,55.87
2023-05-03T08:54:40.555Z,58.01
2023-05-03T08:55:40.584Z,58.18
2023-05-03T08:56:40.563Z,55.43
2023-05-03T08:57:40.624Z,54.18
2023-05-03T08:58:40.557Z,54.39
2023-05-03T08:59:40.533Z,54.36
2023-05-03T09:00:40.508Z,55.48
2023-05-03T09:01:40.593Z,54.24
2023-05-03T09:02:40.624Z,53.90
2023-05-03T09:03:40.554Z,52.98
2023-05-03T09:04:40.474Z,51.26
2023-05-03T09:05:40.477Z,53.19
2023-05-03T09:06:40.486Z,52.25
2023-05-03T09:07:40.448Z,51.36
2023-05-03T09:08:40.393Z,53.22
2023-05-03T09:09:40.445Z,53.44
2023-05-03T09:10:40.459Z,52.22
2023-05-03T09:11:40.424Z,53.96
2023-05-03T09:12:40.461Z,55.30
2023-05-03T09:13:40.385Z,51.92
2023-05-03T09:14:40.514Z,53.52
2023-05-03T09:15:40.386Z,50.56
2023-05-03T09:16:40.410Z,50.33
2023-05-03T09:17:40.396Z,48.10
2023-05-03T09:18:40.323Z,49.95
2023-05-03T09:19:40.344Z,49.64
2023-05-03T09:20:40.367Z,51.59
2023-05-03T09:21:40.305Z,55.55
2023-05-03T09:22:40.290Z,52.40
2023-05-03T09:23:40.379Z,50.27
2023-05-03T09:24:40.301Z,50.17
2023-05-03T09:25:40.249Z,51.04
2023-05-03T09:26:40.361Z,52.97
2023-05-03T09:27:40.250Z,51.01
2023-05-03T09:28:41.243Z,49.27
2023-05-03T09:29:40.221Z,48.68
2023-05-03T09:30:40.246Z,49.80
2023-05-03T09:31:40.240Z,50.08
2023-05-03T09:32:40.208Z,48.66
2023-05-03T09:33:40.195Z,47.79
2023-05-03T09:34:40.225Z,48.32
2023-05-03T09:35:40.158Z,51.29
2023-05-03T09:36:40.184Z,49.66
2023-05-03T09:37:40.171Z,50.17
2023-05-03T09:38:40.146Z,49.97
2023-05-03T09:39:40.166Z,48.97
2023-05-03T09:40:40.138Z,49.48
2023-05-03T09:41:40.102Z,49.28
2023-05-03T09:42:40.110Z,51.21
2023-05-03T09:43:40.092Z,51.18
2023-05-03T09:44:40.097Z,49.39
2023-05-03T09:45:40.097Z,48.74
2023-05-03T09:46:40.048Z,47.27
2023-05-03T09:47:40.132Z,46.24
2023-05-03T09:48:40.038Z,47.31
2023-05-03T09:49:40.069Z,47.89
2023-05-03T09:50:40.074Z,45.89
2023-05-03T09:51:40.031Z,44.52
2023-05-03T09:52:39.983Z,45.59
2023-05-03T09:53:39.990Z,48.23
2023-05-03T09:54:39.959Z,46.81
2023-05-03T09:55:39.983Z,46.18
2023-05-03T09:56:39.981Z,45.96
2023-05-03T09:57:39.930Z,47.25
2023-05-03T09:58:39.981Z,47.61
2023-05-03T09:59:40.057Z,45.47
2023-05-03T10:00:39.901Z,43.95
2023-05-03T10:01:39.982Z,43.30
2023-05-03T10:02:40.023Z,43.30
2023-05-03T10:03:39.958Z,45.81
2023-05-03T10:04:39.914Z,42.66
2023-05-03T10:05:39.858Z,43.54
2023-05-03T10:06:39.909Z,41.25
2023-05-03T10:07:39.855Z,43.87
2023-05-03T10:08:39.843Z,43.18
2023-05-03T10:09:39.817Z,41.12
2023-05-03T10:10:39.824Z,42.64
2023-05-03T10:11:39.775Z,42.60
2023-05-03T10:12:39.820Z,43.60
2023-05-03T10:13:39.764Z,46.36
2023-05-03T10:14:39.800Z,45.85
2023-05-03T10:15:39.837Z,43.44
2023-05-03T10:16:39.793Z,45.57
2023-05-03T10:18:40.742Z,43.69
2023-05-03T10:19:39.830Z,44.12
2023-05-03T10:20:39.731Z,45.83
2023-05-03T10:21:39.673Z,46.01
2023-05-03T10:22:39.713Z,44.17
2023-05-03T10:23:39.680Z,43.65
2023-05-03T10:24:39.679Z,41.28
2023-05-03T10:25:39.649Z,43.57
2023-05-03T10:26:39.634Z,40.94
2023-05-03T10:27:39.654Z,42.86
2023-05-03T10:28:39.649Z,41.61
2023-05-03T10:29:39.607Z,39.43
2023-05-03T10:30:39.591Z,42.70
2023-05-03T10:31:39.631Z,43.55
2023-05-03T10:32:39.649Z,42.43
2023-05-03T10:33:39.550Z,43.44
2023-05-03T10:34:39.527Z,43.02
2023-05-03T10:35:39.538Z,46.36
2023-05-03T10:36:48.948Z,42.49
2023-05-03T10:37:41.557Z,40.70
2023-05-03T10:38:45.611Z,40.01
2023-05-03T10:39:40.516Z,40.33
2023-05-03T10:40:39.496Z,40.82
2023-05-03T10:41:39.452Z,41.50
2023-05-03T10:42:39.458Z,42.61
2023-05-03T10:43:39.437Z,42.21
2023-05-03T10:44:39.448Z,41.30
2023-05-03T10:45:39.422Z,40.25
2023-05-03T10:46:39.446Z,45.06
2023-05-03T10:47:39.429Z,41.09
2023-05-03T10:48:39.428Z,38.55
2023-05-03T10:49:39.367Z,42.98
2023-05-03T10:50:39.442Z,41.06
2023-05-03T10:51:39.402Z,41.15
2023-05-03T10:52:39.417Z,38.35
2023-05-03T10:53:39.399Z,38.89
2023-05-03T10:54:39.356Z,40.22
2023-05-03T10:55:39.343Z,38.39
2023-05-03T10:56:39.349Z,40.14
2023-05-03T10:57:40.337Z,40.54
2023-05-03T10:58:40.361Z,42.61
2023-05-03T10:59:39.395Z,42.55
2023-05-03T11:00:39.330Z,42.30
2023-05-03T11:01:39.337Z,36.27
2023-05-03T11:02:39.320Z,39.00
2023-05-03T11:03:39.277Z,38.48
2023-05-03T11:04:39.308Z,39.84
2023-05-03T11:05:41.019Z,39.62
2023-05-03T11:06:39.259Z,37.52
2023-05-03T11:07:39.199Z,37.69
2023-05-03T11:08:39.192Z,41.20
2023-05-03T11:09:39.226Z,40.80
2023-05-03T11:10:39.185Z,39.51
2023-05-03T11:11:39.143Z,41.00
2023-05-03T11:12:39.154Z,40.91
2023-05-03T11:13:39.230Z,38.57
2023-05-03T11:14:39.140Z,40.86
2023-05-03T11:15:39.130Z,37.43
2023-05-03T11:16:39.177Z,35.82
2023-05-03T11:17:39.156Z,38.15
2023-05-03T11:18:39.129Z,38.95
2023-05-03T11:19:39.049Z,38.33
2023-05-03T11:20:40.057Z,37.43
2023-05-03T11:21:39.040Z,38.93
2023-05-03T11:22:39.073Z,37.63
2023-05-03T11:23:39.105Z,37.45
2023-05-03T11:24:39.029Z,36.69
2023-05-03T11:25:39.016Z,37.01
2023-05-03T11:26:39.016Z,38.62
2023-05-03T11:27:39.054Z,41.25
2023-05-03T11:28:38.992Z,40.38
2023-05-03T11:29:39.039Z,39.94
2023-05-03T11:30:38.993Z,40.08
2023-05-03T11:31:39.080Z,37.52
2023-05-03T11:32:39.065Z,35.10
2023-05-03T11:33:39.062Z,36.48
2023-05-03T11:34:38.965Z,37.18
2023-05-03T11:35:38.955Z,36.75
2023-05-03T11:36:38.946Z,33.33
2023-05-03T11:37:38.914Z,32.73
2023-05-03T11:38:39.011Z,33.73
2023-05-03T11:39:38.939Z,31.81
2023-05-03T11:40:38.909Z,36.69
2023-05-03T11:41:38.932Z,34.68
2023-05-03T11:42:38.878Z,32.98
2023-05-03T11:43:38.874Z,32.79
2023-05-03T11:44:38.872Z,31.70
2023-05-03T11:45:38.915Z,29.69
2023-05-03T11:46:39.049Z,29.12
2023-05-03T11:47:38.959Z,29.36
2023-05-03T11:48:38.939Z,29.88
2023-05-03T11:49:38.775Z,31.21
2023-05-03T11:50:38.785Z,35.75
2023-05-03T11:51:38.778Z,31.73
2023-05-03T11:52:38.765Z,34.99
2023-05-03T11:53:38.770Z,33.86
2023-05-03T11:54:38.773Z,30.52
2023-05-03T11:55:38.717Z,29.24
2023-05-03T11:56:38.743Z,33.81
2023-05-03T11:57:38.723Z,30.73
2023-05-03T11:58:38.727Z,31.43
2023-05-03T11:59:38.720Z,29.91
2023-05-03T12:00:38.684Z,30.52
2023-05-03T12:01:38.811Z,30.76
2023-05-03T12:02:38.780Z,30.24
2023-05-03T12:03:38.785Z,31.46
2023-05-03T12:04:39.141Z,27.73
2023-05-03T12:05:39.387Z,26.37
2023-05-03T12:06:39.909Z,27.61
2023-05-03T12:07:38.803Z,32.17
2023-05-03T12:08:41.519Z,34.61
2023-05-03T12:09:40.356Z,37.41
2023-05-03T12:10:38.828Z,35.78
2023-05-03T12:11:39.834Z,35.21
2023-05-03T12:12:43.543Z,34.55
2023-05-03T12:13:41.198Z,34.68
2023-05-03T12:14:39.239Z,30.60
2023-05-03T12:15:40.610Z,31.40
2023-05-03T12:18:05.167Z,31.32
2023-05-03T12:19:04.793Z,32.81
2023-05-03T12:20:42.012Z,32.70
2023-05-03T12:21:30.888Z,30.28
2023-05-03T12:22:24.069Z,30.48
2023-05-03T12:23:05.829Z,32.46
2023-05-03T12:24:06.049Z,35.53
2023-05-03T12:25:04.904Z,33.72
2023-05-03T12:26:05.490Z,29.72
2023-05-03T12:27:04.528Z,30.61
2023-05-03T12:28:17.867Z,30.44
2023-05-03T12:29:06.695Z,31.21
2023-05-03T12:30:04.959Z,34.11
2023-05-03T12:31:05.380Z,32.81
2023-05-03T12:32:05.172Z,32.49
2023-05-03T12:33:05.268Z,35.30
2023-05-03T12:34:30.986Z,30.60
2023-05-03T12:35:08.174Z,32.92
2023-05-03T12:36:04.612Z,32.42
2023-05-03T12:37:05.749Z,32.75
2023-05-03T12:38:04.697Z,34.41
2023-05-03T12:39:05.777Z,36.80
2023-05-03T12:41:05.590Z,34.78
2023-05-03T12:42:06.751Z,33.05
2023-05-03T12:43:04.581Z,37.77
2023-05-03T12:44:04.412Z,35.38
2023-05-03T12:45:05.008Z,34.99
2023-05-03T12:47:09.560Z,36.87
2023-05-03T12:48:04.337Z,36.89
2023-05-03T12:50:06.311Z,35.66
2023-05-03T12:51:18.529Z,40.16
2023-05-03T12:52:35.234Z,37.27
2023-05-03T12:53:08.896Z,33.94
2023-05-03T12:54:04.330Z,32.72
2023-05-03T12:55:04.564Z,34.19
2023-05-03T12:56:06.617Z,34.58
2023-05-03T12:57:07.941Z,32.56
2023-05-03T12:59:35.587Z,30.31